createdAt,value
2024-04-14T00:01:01.769Z,20.78
2024-04-14T00:03:29.020Z,20.74
2024-04-14T00:05:56.123Z,20.71
2024-04-14T00:08:23.295Z,20.69
2024-04-14T00:10:50.499Z,20.70
2024-04-14T00:13:17.651Z,20.68
2024-04-14T00:15:44.785Z,20.66
2024-04-14T00:18:12.526Z,20.61
2024-04-14T00:20:39.979Z,20.56
2024-04-14T00:23:07.439Z,20.54
2024-04-14T00:25:36.154Z,20.53
2024-04-14T00:28:03.711Z,20.52
2024-04-14T00:30:30.879Z,20.53
2024-04-14T00:32:59.232Z,20.46
2024-04-14T00:35:26.756Z,20.50
2024-04-14T00:37:53.878Z,20.43
2024-04-14T00:40:21.744Z,20.45
2024-04-14T00:42:49.345Z,20.38
2024-04-14T00:45:17.806Z,20.39
2024-04-14T00:47:45.089Z,20.36
2024-04-14T00:50:12.279Z,20.36
2024-04-14T00:52:39.524Z,20.34
2024-04-14T00:55:07.579Z,20.34
2024-04-14T00:57:35.867Z,20.31
2024-04-14T01:00:03.869Z,20.30
2024-04-14T01:02:31.086Z,20.24
2024-04-14T01:04:58.378Z,20.20
2024-04-14T01:07:25.855Z,20.14
2024-04-14T01:09:54.060Z,20.09
2024-04-14T01:12:21.284Z,20.06
2024-04-14T01:14:48.395Z,20.03
2024-04-14T01:17:15.615Z,20.04
2024-04-14T01:19:43.108Z,19.99
2024-04-14T01:22:10.250Z,19.96
2024-04-14T01:24:37.537Z,19.93
2024-04-14T01:27:04.759Z,19.90
2024-04-14T01:29:32.142Z,19.89
2024-04-14T01:31:59.392Z,19.85
2024-04-14T01:34:27.370Z,19.80
2024-04-14T01:36:54.593Z,19.76
2024-04-14T01:39:21.841Z,19.75
2024-04-14T01:41:49.009Z,19.72
2024-04-14T01:44:16.231Z,19.69
2024-04-14T01:46:43.544Z,19.68
2024-04-14T01:49:10.789Z,19.63
2024-04-14T01:51:38.780Z,19.61
2024-04-14T01:54:06.193Z,19.64
2024-04-14T01:56:33.338Z,19.65
2024-04-14T01:59:00.487Z,19.65
2024-04-14T02:01:27.736Z,19.59
2024-04-14T02:03:55.149Z,19.58
2024-04-14T02:06:22.475Z,19.61
2024-04-14T02:08:53.429Z,19.62
2024-04-14T02:11:20.693Z,19.65
2024-04-14T02:13:47.845Z,19.64
2024-04-14T02:16:15.030Z,19.65
2024-04-14T02:18:42.242Z,19.61
2024-04-14T02:21:09.442Z,19.57
2024-04-14T02:23:40.246Z,19.59
2024-04-14T02:26:07.801Z,19.56
2024-04-14T02:28:35.237Z,19.46
2024-04-14T02:31:03.124Z,19.45
2024-04-14T02:33:30.293Z,19.35
2024-04-14T02:36:01.488Z,19.34
2024-04-14T02:38:29.837Z,19.33
2024-04-14T02:41:00.975Z,19.29
2024-04-14T02:43:29.602Z,19.22
2024-04-14T02:45:57.282Z,19.18
2024-04-14T02:48:24.952Z,19.13
2024-04-14T02:50:52.533Z,19.10
2024-04-14T02:53:19.759Z,19.04
2024-04-14T02:55:46.905Z,19.04
2024-04-14T02:58:14.164Z,19.04
2024-04-14T03:00:41.448Z,19.05
2024-04-14T03:03:09.605Z,19.04
2024-04-14T03:05:36.787Z,19.05
2024-04-14T03:08:06.767Z,19.05
2024-04-14T03:10:34.852Z,19.04
2024-04-14T03:13:02.134Z,19.01
2024-04-14T03:15:29.325Z,19.02
2024-04-14T03:17:57.461Z,19.04
2024-04-14T03:20:24.685Z,19.00
2024-04-14T03:22:51.883Z,19.00
2024-04-14T03:25:19.076Z,18.98
2024-04-14T03:27:46.395Z,18.99
2024-04-14T03:30:13.499Z,18.95
2024-04-14T03:32:40.889Z,18.88
2024-04-14T03:35:08.070Z,18.83
2024-04-14T03:37:40.417Z,18.85
2024-04-14T03:40:09.585Z,18.78
2024-04-14T03:42:36.985Z,18.65
2024-04-14T03:45:09.650Z,18.63
2024-04-14T03:47:37.418Z,18.59
2024-04-14T03:50:07.738Z,18.60
2024-04-14T03:52:35.129Z,18.58
2024-04-14T03:55:02.974Z,18.59
2024-04-14T03:57:30.161Z,18.58
2024-04-14T03:59:59.187Z,18.59
2024-04-14T04:02:26.340Z,18.65
2024-04-14T04:04:53.610Z,18.63
2024-04-14T04:07:20.790Z,18.66
2024-04-14T04:09:47.984Z,18.69
2024-04-14T04:12:18.501Z,18.72
2024-04-14T04:14:45.826Z,18.70
2024-04-14T04:17:12.941Z,18.70
2024-04-14T04:19:40.150Z,18.79
2024-04-14T04:22:07.349Z,18.76
2024-04-14T04:24:34.494Z,18.72
2024-04-14T04:27:01.684Z,18.73
2024-04-14T04:29:31.525Z,18.73
2024-04-14T04:31:58.979Z,18.73
2024-04-14T04:34:27.063Z,18.70
2024-04-14T04:36:54.402Z,18.71
2024-04-14T04:39:21.619Z,18.72
2024-04-14T04:41:48.863Z,18.68
2024-04-14T04:44:16.001Z,18.63
2024-04-14T04:46:43.350Z,18.62
2024-04-14T04:49:10.625Z,18.59
2024-04-14T04:51:38.037Z,18.56
2024-04-14T04:54:06.652Z,18.52
2024-04-14T04:56:33.977Z,18.48
2024-04-14T04:59:01.171Z,18.45
2024-04-14T05:01:28.581Z,18.40
2024-04-14T05:03:55.995Z,18.36
2024-04-14T05:06:23.252Z,18.33
2024-04-14T05:08:50.342Z,18.30
2024-04-14T05:11:17.554Z,18.28
2024-04-14T05:13:44.762Z,18.23
2024-04-14T05:16:12.040Z,18.24
2024-04-14T05:18:39.393Z,18.22
2024-04-14T05:21:07.012Z,18.15
2024-04-14T05:23:34.200Z,18.16
2024-04-14T05:26:02.010Z,18.09
2024-04-14T05:28:29.156Z,18.07
2024-04-14T05:30:56.295Z,18.03
2024-04-14T05:33:23.515Z,18.01
2024-04-14T05:35:57.377Z,18.01
2024-04-14T05:38:24.672Z,17.97
2024-04-14T05:40:51.940Z,17.91
2024-04-14T05:43:19.121Z,17.95
2024-04-14T05:45:46.597Z,17.98
2024-04-14T05:48:14.114Z,17.99
2024-04-14T05:50:41.399Z,18.05
2024-04-14T05:53:08.584Z,18.11
2024-04-14T05:55:35.667Z,18.13
2024-04-14T05:58:02.999Z,18.21
2024-04-14T06:00:30.411Z,18.26
2024-04-14T06:02:58.200Z,18.30
2024-04-14T06:05:25.326Z,18.32
2024-04-14T06:07:52.405Z,18.39
2024-04-14T06:10:19.499Z,18.44
2024-04-14T06:12:46.787Z,18.60
2024-04-14T06:15:13.919Z,18.75
2024-04-14T06:17:41.088Z,18.88
2024-04-14T06:20:08.681Z,18.99
2024-04-14T06:22:35.913Z,19.06
2024-04-14T06:25:03.073Z,19.16
2024-04-14T06:27:30.339Z,19.25
2024-04-14T06:29:57.458Z,19.36
2024-04-14T06:32:25.014Z,19.43
2024-04-14T06:34:52.205Z,19.51
2024-04-14T06:37:19.972Z,19.61
2024-04-14T06:39:47.154Z,19.70
2024-04-14T06:42:16.864Z,19.79
2024-04-14T06:44:44.542Z,19.90
2024-04-14T06:47:12.366Z,19.94
2024-04-14T06:49:39.584Z,20.00
2024-04-14T06:52:07.035Z,20.11
2024-04-14T06:54:34.316Z,20.19
2024-04-14T06:57:01.537Z,20.29
2024-04-14T06:59:28.628Z,20.42
2024-04-14T07:01:56.050Z,20.54
2024-04-14T07:04:23.777Z,20.70
2024-04-14T07:06:50.911Z,20.82
2024-04-14T07:09:18.070Z,20.97
2024-04-14T07:11:46.858Z,21.07
2024-04-14T07:14:13.987Z,21.22
2024-04-14T07:16:41.094Z,21.39
2024-04-14T07:19:09.392Z,21.58
2024-04-14T07:21:37.852Z,21.78
2024-04-14T07:24:05.379Z,21.96
2024-04-14T07:26:32.692Z,22.17
2024-04-14T07:28:59.906Z,22.42
2024-04-14T07:31:27.055Z,22.59
2024-04-14T07:34:01.915Z,22.86
2024-04-14T07:36:30.135Z,23.09
2024-04-14T07:38:57.380Z,23.27
2024-04-14T07:41:24.547Z,23.53
2024-04-14T07:43:53.516Z,23.75
2024-04-14T07:46:20.741Z,24.00
2024-04-14T07:48:48.657Z,24.32
2024-04-14T07:51:15.863Z,24.58
2024-04-14T07:53:42.957Z,24.85
2024-04-14T07:56:10.112Z,25.09
2024-04-14T07:58:37.231Z,25.39
2024-04-14T08:01:06.147Z,25.62
2024-04-14T08:03:42.849Z,25.89
2024-04-14T08:06:17.835Z,26.14
2024-04-14T08:08:45.185Z,26.25
2024-04-14T08:11:13.669Z,26.41
2024-04-14T08:13:41.090Z,26.54
2024-04-14T08:16:08.802Z,26.65
2024-04-14T08:18:36.263Z,26.71
2024-04-14T08:21:06.727Z,26.70
2024-04-14T08:23:34.415Z,26.75
2024-04-14T08:26:02.191Z,26.79
2024-04-14T08:28:29.824Z,26.76
2024-04-14T08:30:57.005Z,26.85
2024-04-14T08:33:24.281Z,26.83
2024-04-14T08:35:51.724Z,26.86
2024-04-14T08:38:18.978Z,26.90
2024-04-14T08:40:55.872Z,26.88
2024-04-14T08:43:23.972Z,26.82
2024-04-14T08:45:55.826Z,26.90
2024-04-14T08:48:23.869Z,26.89
2024-04-14T08:50:52.372Z,26.93
2024-04-14T08:53:20.297Z,26.94
2024-04-14T08:55:48.146Z,26.97
2024-04-14T08:58:16.929Z,26.93
2024-04-14T09:00:48.313Z,26.91
2024-04-14T09:03:15.888Z,26.93
2024-04-14T09:05:45.790Z,26.87
2024-04-14T09:08:12.962Z,26.84
2024-04-14T09:10:40.261Z,26.89
2024-04-14T09:13:09.550Z,26.91
2024-04-14T09:15:42.510Z,26.91
2024-04-14T09:18:09.943Z,26.95
2024-04-14T09:20:37.134Z,26.99
2024-04-14T09:23:04.425Z,27.04
2024-04-14T09:25:31.654Z,27.05
2024-04-14T09:28:08.730Z,27.08
2024-04-14T09:30:36.010Z,27.08
2024-04-14T09:33:04.726Z,27.04
2024-04-14T09:35:32.043Z,27.03
2024-04-14T09:38:02.037Z,27.00
2024-04-14T09:40:33.400Z,26.98
2024-04-14T09:43:01.702Z,26.90
2024-04-14T09:45:31.701Z,26.85
2024-04-14T09:48:00.184Z,26.83
2024-04-14T09:50:27.807Z,26.84
2024-04-14T09:52:57.763Z,26.85
2024-04-14T09:55:25.249Z,26.76
2024-04-14T09:57:52.493Z,26.80
2024-04-14T10:00:20.348Z,26.81
2024-04-14T10:03:00.594Z,26.84
2024-04-14T10:05:29.971Z,26.83
2024-04-14T10:07:57.453Z,26.91
2024-04-14T10:10:25.552Z,26.87
2024-04-14T10:12:53.547Z,26.71
2024-04-14T10:15:26.312Z,26.73
2024-04-14T10:18:39.192Z,26.40
2024-04-14T10:21:07.080Z,26.36
2024-04-14T10:23:34.303Z,26.37
2024-04-14T10:26:01.616Z,26.33
2024-04-14T10:28:28.795Z,26.31
2024-04-14T10:31:03.615Z,26.27
2024-04-14T10:33:31.225Z,26.22
2024-04-14T10:36:06.436Z,26.23
2024-04-14T10:38:35.767Z,26.26
2024-04-14T10:41:03.732Z,26.30
2024-04-14T10:43:31.618Z,26.36
2024-04-14T10:46:03.515Z,26.45
2024-04-14T10:48:33.299Z,26.54
2024-04-14T10:51:03.650Z,26.51
2024-04-14T10:53:31.035Z,26.57
2024-04-14T10:55:58.272Z,26.66
2024-04-14T10:58:30.236Z,26.74
2024-04-14T11:00:58.187Z,26.74
2024-04-14T11:03:26.904Z,26.77
2024-04-14T11:05:55.557Z,26.80
2024-04-14T11:08:26.558Z,26.83
2024-04-14T11:10:55.022Z,26.91
2024-04-14T11:13:26.329Z,26.96
2024-04-14T11:15:59.960Z,27.00
2024-04-14T11:18:29.577Z,27.01
2024-04-14T11:20:57.093Z,26.99
2024-04-14T11:23:24.995Z,26.99
2024-04-14T11:25:52.185Z,26.94
2024-04-14T11:28:21.051Z,26.86
2024-04-14T11:30:48.632Z,26.82
2024-04-14T11:33:16.220Z,26.81
2024-04-14T11:35:43.439Z,26.80
2024-04-14T11:38:10.603Z,26.76
2024-04-14T11:40:38.272Z,26.78
2024-04-14T11:43:05.627Z,26.76
2024-04-14T11:45:32.902Z,26.77
2024-04-14T11:48:00.147Z,26.73
2024-04-14T11:50:27.325Z,26.68
2024-04-14T11:52:54.495Z,26.70
2024-04-14T11:55:21.654Z,26.68
2024-04-14T11:57:48.949Z,26.72
2024-04-14T12:00:16.198Z,26.73
2024-04-14T12:02:43.888Z,26.74
2024-04-14T12:05:11.092Z,26.80
2024-04-14T12:07:38.458Z,26.81
2024-04-14T12:10:06.170Z,26.88
2024-04-14T12:12:33.634Z,26.87
2024-04-14T12:15:00.970Z,26.94
2024-04-14T12:17:28.229Z,26.94
2024-04-14T12:19:57.661Z,26.98
2024-04-14T12:22:25.887Z,27.00
2024-04-14T12:24:53.119Z,27.03
2024-04-14T12:27:20.277Z,27.09
2024-04-14T12:29:49.076Z,27.06
2024-04-14T12:32:18.467Z,27.07
2024-04-14T12:34:45.986Z,27.05
2024-04-14T12:37:13.244Z,27.02
2024-04-14T12:39:40.567Z,27.06
2024-04-14T12:42:10.608Z,27.08
2024-04-14T12:44:40.561Z,27.09
2024-04-14T12:47:07.711Z,27.11
2024-04-14T12:49:34.922Z,27.14
2024-04-14T12:52:03.120Z,27.14
2024-04-14T12:54:30.924Z,27.09
2024-04-14T12:56:58.163Z,27.20
2024-04-14T12:59:25.307Z,27.26
2024-04-14T13:01:52.487Z,27.32
2024-04-14T13:04:19.935Z,27.34
2024-04-14T13:06:47.172Z,27.32
2024-04-14T13:09:14.639Z,27.28
2024-04-14T13:11:43.287Z,27.23
2024-04-14T13:14:12.451Z,27.19
2024-04-14T13:16:39.723Z,27.23
2024-04-14T13:19:06.882Z,27.27
2024-04-14T13:21:35.153Z,27.28
2024-04-14T13:24:02.745Z,27.31
2024-04-14T13:26:32.019Z,27.39
2024-04-14T13:28:59.240Z,27.38
2024-04-14T13:31:26.370Z,27.37
2024-04-14T13:33:53.566Z,27.44
2024-04-14T13:36:20.796Z,27.46
2024-04-14T13:38:47.998Z,27.50
2024-04-14T13:41:15.062Z,27.49
2024-04-14T13:43:42.976Z,27.43
2024-04-14T13:46:10.202Z,27.42
2024-04-14T13:48:37.544Z,27.29
2024-04-14T13:51:07.058Z,27.29
2024-04-14T13:53:34.439Z,27.25
2024-04-14T13:56:01.621Z,27.20
2024-04-14T13:58:29.427Z,27.08
2024-04-14T14:00:57.592Z,27.13
2024-04-14T14:03:24.762Z,27.14
2024-04-14T14:05:51.990Z,27.19
2024-04-14T14:08:20.169Z,27.23
2024-04-14T14:10:47.303Z,27.18
2024-04-14T14:13:14.582Z,27.22
2024-04-14T14:15:41.831Z,27.26
2024-04-14T14:18:08.972Z,27.26
2024-04-14T14:20:36.146Z,27.25
2024-04-14T14:23:08.024Z,27.30
2024-04-14T14:25:37.578Z,27.35
2024-04-14T14:28:04.993Z,27.36
2024-04-14T14:30:33.401Z,27.26
2024-04-14T14:33:21.944Z,27.20
2024-04-14T14:36:07.940Z,27.13
2024-04-14T14:38:39.500Z,27.13
2024-04-14T14:41:08.450Z,27.13
2024-04-14T14:43:37.240Z,27.12
2024-04-14T14:46:04.830Z,27.16
2024-04-14T14:48:32.289Z,27.20
2024-04-14T14:50:59.453Z,27.22
2024-04-14T14:53:26.558Z,27.24
2024-04-14T14:55:53.716Z,27.29
2024-04-14T14:58:20.929Z,27.32
2024-04-14T15:00:48.186Z,27.33
2024-04-14T15:03:15.382Z,27.37
2024-04-14T15:05:42.631Z,27.41
2024-04-14T15:08:09.733Z,27.43
2024-04-14T15:10:45.359Z,27.42
2024-04-14T15:13:14.412Z,27.29
2024-04-14T15:15:45.584Z,27.26
2024-04-14T15:18:12.903Z,27.24
2024-04-14T15:20:40.725Z,27.11
2024-04-14T15:23:07.970Z,27.08
2024-04-14T15:25:35.125Z,27.11
2024-04-14T15:28:09.507Z,27.11
2024-04-14T15:30:40.167Z,27.13
2024-04-14T15:33:07.461Z,27.14
2024-04-14T15:35:34.756Z,26.79
2024-04-14T15:38:02.383Z,26.73
2024-04-14T15:40:32.883Z,26.71
2024-04-14T15:43:00.042Z,26.51
2024-04-14T15:45:27.832Z,26.15
2024-04-14T15:47:55.135Z,26.00
2024-04-14T15:50:22.410Z,25.91
2024-04-14T15:52:49.954Z,25.75
2024-04-14T15:55:17.198Z,25.77
2024-04-14T15:57:44.410Z,25.82
2024-04-14T16:00:12.833Z,25.91
2024-04-14T16:02:40.082Z,25.97
2024-04-14T16:05:08.038Z,25.99
2024-04-14T16:07:35.854Z,25.97
2024-04-14T16:10:04.071Z,26.00
2024-04-14T16:12:31.494Z,26.04
2024-04-14T16:14:58.837Z,26.04
2024-04-14T16:17:26.117Z,26.05
2024-04-14T16:19:53.315Z,25.97
2024-04-14T16:22:20.531Z,25.86
2024-04-14T16:24:47.963Z,25.83
2024-04-14T16:27:15.439Z,25.88
2024-04-14T16:29:44.327Z,25.94
2024-04-14T16:32:12.095Z,25.77
2024-04-14T16:34:39.600Z,25.75
2024-04-14T16:37:07.005Z,25.76
2024-04-14T16:39:34.206Z,25.73
2024-04-14T16:42:01.632Z,25.71
2024-04-14T16:44:28.910Z,25.70
2024-04-14T16:46:56.148Z,25.61
2024-04-14T16:49:23.379Z,25.42
2024-04-14T16:51:50.819Z,25.56
2024-04-14T16:54:18.086Z,25.46
2024-04-14T16:56:48.401Z,25.53
2024-04-14T16:59:15.758Z,25.55
2024-04-14T17:01:43.171Z,25.60
2024-04-14T17:04:10.806Z,25.53
2024-04-14T17:06:38.150Z,25.50
2024-04-14T17:09:05.387Z,25.42
2024-04-14T17:11:32.750Z,25.33
2024-04-14T17:13:59.897Z,25.31
2024-04-14T17:16:27.314Z,25.22
2024-04-14T17:18:55.241Z,25.15
2024-04-14T17:21:22.578Z,25.17
2024-04-14T17:23:49.706Z,25.20
2024-04-14T17:26:16.831Z,25.22
2024-04-14T17:28:44.054Z,25.19
2024-04-14T17:31:11.156Z,24.98
2024-04-14T17:33:40.528Z,25.11
2024-04-14T17:36:08.403Z,25.09
2024-04-14T17:38:35.925Z,25.04
2024-04-14T17:41:03.370Z,25.09
2024-04-14T17:43:30.999Z,25.16
2024-04-14T17:45:59.660Z,25.22
2024-04-14T17:48:27.372Z,25.15
2024-04-14T17:50:54.958Z,25.08
2024-04-14T17:53:22.398Z,25.08
2024-04-14T17:55:56.387Z,25.12
2024-04-14T17:58:24.360Z,25.14
2024-04-14T18:01:00.257Z,25.08
2024-04-14T18:03:28.375Z,25.03
2024-04-14T18:05:55.987Z,25.00
2024-04-14T18:08:23.633Z,25.01
2024-04-14T18:10:51.003Z,25.00
2024-04-14T18:13:18.465Z,24.98
2024-04-14T18:15:46.106Z,24.91
2024-04-14T18:18:13.790Z,24.95
2024-04-14T18:20:43.426Z,24.98
2024-04-14T18:23:12.778Z,25.01
2024-04-14T18:25:40.101Z,25.06
2024-04-14T18:28:07.817Z,25.09
2024-04-14T18:30:36.892Z,25.13
2024-04-14T18:33:05.804Z,25.11
2024-04-14T18:35:33.146Z,25.13
2024-04-14T18:38:00.621Z,25.14
2024-04-14T18:40:28.261Z,25.15
2024-04-14T18:42:55.724Z,25.19
2024-04-14T18:45:23.008Z,25.21
2024-04-14T18:47:50.277Z,25.21
2024-04-14T18:50:17.780Z,25.18
2024-04-14T18:52:45.100Z,25.16
2024-04-14T18:55:12.972Z,25.16
2024-04-14T18:57:40.365Z,25.18
2024-04-14T19:00:08.459Z,25.17
2024-04-14T19:02:36.704Z,25.16
2024-04-14T19:05:04.292Z,25.15
2024-04-14T19:07:32.076Z,25.18
2024-04-14T19:10:00.098Z,25.19
2024-04-14T19:12:27.869Z,25.18
2024-04-14T19:14:55.594Z,25.19
2024-04-14T19:17:28.779Z,25.21
2024-04-14T19:19:57.092Z,25.09
2024-04-14T19:22:24.714Z,25.11
2024-04-14T19:24:52.583Z,25.11
2024-04-14T19:27:20.002Z,25.07
2024-04-14T19:29:47.703Z,25.00
2024-04-14T19:32:15.383Z,24.92
2024-04-14T19:34:44.422Z,24.94
2024-04-14T19:37:12.003Z,24.94
2024-04-14T19:39:40.565Z,24.95
2024-04-14T19:42:17.378Z,24.85
2024-04-14T19:44:45.708Z,24.74
2024-04-14T19:47:13.535Z,24.68
2024-04-14T19:49:41.064Z,24.65
2024-04-14T19:52:08.178Z,24.62
2024-04-14T19:54:36.005Z,24.66
2024-04-14T19:57:03.799Z,24.63
2024-04-14T19:59:31.039Z,24.64
2024-04-14T20:01:58.688Z,24.58
2024-04-14T20:04:30.394Z,24.52
2024-04-14T20:07:00.028Z,23.88
2024-04-14T20:09:27.424Z,23.82
2024-04-14T20:11:56.404Z,23.98
2024-04-14T20:14:24.937Z,24.09
2024-04-14T20:16:52.165Z,24.14
2024-04-14T20:19:19.440Z,24.22
2024-04-14T20:21:46.723Z,24.18
2024-04-14T20:24:13.929Z,24.17
2024-04-14T20:26:41.015Z,23.97
2024-04-14T20:29:10.074Z,23.76
2024-04-14T20:31:37.648Z,23.65
2024-04-14T20:34:06.068Z,23.71
2024-04-14T20:36:33.985Z,23.79
2024-04-14T20:39:01.274Z,23.78
2024-04-14T20:41:28.459Z,23.80
2024-04-14T20:43:55.763Z,23.89
2024-04-14T20:46:23.251Z,23.95
2024-04-14T20:48:53.116Z,23.97
2024-04-14T20:51:20.877Z,23.94
2024-04-14T20:53:48.784Z,23.95
2024-04-14T20:56:15.987Z,23.92
2024-04-14T20:58:43.509Z,23.89
2024-04-14T21:01:10.876Z,23.87
2024-04-14T21:03:38.077Z,23.88
2024-04-14T21:06:05.658Z,23.90
2024-04-14T21:08:32.867Z,23.85
2024-04-14T21:11:04.014Z,23.85
2024-04-14T21:13:31.226Z,23.86
2024-04-14T21:15:58.369Z,23.86
2024-04-14T21:18:25.728Z,23.84
2024-04-14T21:20:58.974Z,23.90
2024-04-14T21:23:26.180Z,23.84
2024-04-14T21:26:04.020Z,23.91
2024-04-14T21:28:31.756Z,23.88
2024-04-14T21:30:59.023Z,23.82
2024-04-14T21:33:26.489Z,23.80
2024-04-14T21:35:54.221Z,23.74
2024-04-14T21:38:25.203Z,23.72
2024-04-14T21:40:54.111Z,23.65
2024-04-14T21:43:21.228Z,23.61
2024-04-14T21:45:58.986Z,23.60
2024-04-14T21:48:30.347Z,23.57
2024-04-14T21:50:59.173Z,23.50
2024-04-14T21:53:26.475Z,23.46
2024-04-14T21:56:02.795Z,23.44
2024-04-14T21:58:34.068Z,23.36
2024-04-14T22:01:11.835Z,23.32
2024-04-14T22:03:39.167Z,23.32
2024-04-14T22:06:06.396Z,23.32
2024-04-14T22:08:34.090Z,23.29
2024-04-14T22:11:01.402Z,23.26
2024-04-14T22:13:32.259Z,23.22
2024-04-14T22:15:59.502Z,23.17
2024-04-14T22:18:26.736Z,23.20
2024-04-14T22:20:54.139Z,23.19
2024-04-14T22:23:21.361Z,23.15
2024-04-14T22:25:48.678Z,23.10
2024-04-14T22:28:15.943Z,23.09
2024-04-14T22:30:43.207Z,23.06
2024-04-14T22:33:10.838Z,23.04
2024-04-14T22:35:38.133Z,23.06
2024-04-14T22:38:05.749Z,22.97
2024-04-14T22:40:32.882Z,22.94
2024-04-14T22:43:00.430Z,22.88
2024-04-14T22:45:27.661Z,22.91
2024-04-14T22:47:59.183Z,22.86
2024-04-14T22:50:26.730Z,22.93
2024-04-14T22:52:53.935Z,22.94
2024-04-14T22:55:21.210Z,22.86
2024-04-14T22:57:48.426Z,22.88
2024-04-14T23:00:15.639Z,22.80
2024-04-14T23:02:43.188Z,22.76
2024-04-14T23:05:10.407Z,22.75
2024-04-14T23:07:37.609Z,22.74
2024-04-14T23:10:05.614Z,22.73
2024-04-14T23:12:32.733Z,22.68
2024-04-14T23:14:59.920Z,22.64
2024-04-14T23:17:27.125Z,22.62
2024-04-14T23:19:56.625Z,22.65
2024-04-14T23:22:23.756Z,22.63
2024-04-14T23:24:50.916Z,22.59
2024-04-14T23:27:17.998Z,22.59
2024-04-14T23:29:45.114Z,22.57
2024-04-14T23:32:12.385Z,22.53
2024-04-14T23:34:39.562Z,22.47
2024-04-14T23:37:07.600Z,22.45
2024-04-14T23:39:38.132Z,22.38
2024-04-14T23:42:05.401Z,22.36
2024-04-14T23:44:32.565Z,22.31
2024-04-14T23:46:59.722Z,22.32
2024-04-14T23:49:27.112Z,22.27
2024-04-14T23:51:55.261Z,22.28
2024-04-14T23:54:22.413Z,22.28
2024-04-14T23:56:51.148Z,22.26
2024-04-14T23:59:18.195Z,22.26
